createdAt,value
2023-04-16T00:01:56.681Z,101897.81
2023-04-16T00:04:23.450Z,101900.69
2023-04-16T00:06:52.828Z,101898.06
2023-04-16T00:09:19.725Z,101905.38
2023-04-16T00:11:47.302Z,101890.84
2023-04-16T00:14:14.050Z,101889.13
2023-04-16T00:16:40.852Z,101909.94
2023-04-16T00:19:07.866Z,101910.69
2023-04-16T00:21:35.190Z,101920.81
2023-04-16T00:24:02.142Z,101917.16
2023-04-16T00:26:28.848Z,101912.75
2023-04-16T00:28:55.943Z,101911.84
2023-04-16T00:31:30.458Z,101910.16
2023-04-16T00:33:58.002Z,101899.34
2023-04-16T00:36:25.699Z,101889.56
2023-04-16T00:38:52.620Z,101873.34
2023-04-16T00:41:20.349Z,101874.25
2023-04-16T00:43:46.952Z,101904.00
2023-04-16T00:46:13.796Z,101912.91
2023-04-16T00:48:41.330Z,101905.69
2023-04-16T00:51:09.168Z,101912.22
2023-04-16T00:53:36.235Z,101827.53
2023-04-16T00:56:04.830Z,101859.97
2023-04-16T00:58:33.044Z,101920.25
2023-04-16T01:01:00.384Z,101819.47
2023-04-16T01:03:37.412Z,101906.72
2023-04-16T01:06:04.552Z,101915.88
2023-04-16T01:08:31.246Z,101909.56
2023-04-16T01:10:57.805Z,101825.84
2023-04-16T01:13:24.542Z,101913.34
2023-04-16T01:15:52.018Z,101922.38
2023-04-16T01:18:20.442Z,101900.78
2023-04-16T01:20:48.285Z,101798.78
2023-04-16T01:23:15.656Z,101918.66
2023-04-16T01:25:43.430Z,101890.81
2023-04-16T01:28:10.645Z,101861.88
2023-04-16T01:30:37.328Z,101899.13
2023-04-16T01:33:13.365Z,101912.50
2023-04-16T01:35:41.182Z,101823.28
2023-04-16T01:38:09.032Z,101899.81
2023-04-16T01:40:36.124Z,101796.25
2023-04-16T01:43:03.347Z,101877.38
2023-04-16T01:45:32.009Z,101897.31
2023-04-16T01:47:59.809Z,101908.25
2023-04-16T01:50:26.914Z,101887.47
2023-04-16T01:52:53.491Z,101870.38
2023-04-16T01:55:20.466Z,101883.69
2023-04-16T01:57:47.339Z,101918.88
2023-04-16T02:00:14.988Z,101841.44
2023-04-16T02:02:49.261Z,101899.13
2023-04-16T02:05:24.643Z,101868.25
2023-04-16T02:07:51.193Z,101894.47
2023-04-16T02:10:17.909Z,101856.66
2023-04-16T02:12:45.542Z,101903.53
2023-04-16T02:15:15.748Z,101915.03
2023-04-16T02:17:42.505Z,101879.88
2023-04-16T02:20:10.876Z,101909.78
2023-04-16T02:22:52.191Z,101887.13
2023-04-16T02:25:22.302Z,101893.50
2023-04-16T02:27:57.037Z,101900.50
2023-04-16T02:30:34.809Z,101920.47
2023-04-16T02:33:05.461Z,101857.34
2023-04-16T02:35:32.583Z,101922.25
2023-04-16T02:37:59.709Z,101899.66
2023-04-16T02:40:26.897Z,101895.09
2023-04-16T02:42:54.149Z,101887.13
2023-04-16T02:45:21.584Z,101886.13
2023-04-16T02:47:49.624Z,101888.84
2023-04-16T02:50:16.944Z,101930.09
2023-04-16T02:52:43.533Z,101911.31
2023-04-16T02:55:11.005Z,101826.84
2023-04-16T02:57:37.673Z,101909.53
2023-04-16T03:00:05.141Z,101860.09
2023-04-16T03:02:33.164Z,101902.75
2023-04-16T03:05:00.617Z,101900.81
2023-04-16T03:07:27.227Z,101904.31
2023-04-16T03:09:53.905Z,101896.16
2023-04-16T03:12:20.515Z,101896.06
2023-04-16T03:14:47.088Z,101932.88
2023-04-16T03:17:13.722Z,101914.59
2023-04-16T03:19:40.572Z,101915.78
2023-04-16T03:22:07.181Z,101839.13
2023-04-16T03:24:34.228Z,101918.22
2023-04-16T03:27:02.396Z,101939.88
2023-04-16T03:29:29.211Z,101934.56
2023-04-16T03:31:56.904Z,101879.56
2023-04-16T03:34:23.523Z,101937.31
2023-04-16T03:36:50.237Z,101945.34
2023-04-16T03:39:18.086Z,101931.06
2023-04-16T03:41:44.701Z,101927.25
2023-04-16T03:44:11.282Z,101918.09
2023-04-16T03:46:38.253Z,101958.53
2023-04-16T03:49:04.988Z,101945.28
2023-04-16T03:51:31.940Z,101934.78
2023-04-16T03:53:58.604Z,101948.25
2023-04-16T03:56:26.457Z,101923.63
2023-04-16T03:58:54.933Z,101916.41
2023-04-16T04:01:21.653Z,101948.03
2023-04-16T04:03:49.134Z,101955.25
2023-04-16T04:06:16.415Z,101897.69
2023-04-16T04:08:44.058Z,101921.09
2023-04-16T04:11:11.708Z,101929.91
2023-04-16T04:13:40.298Z,101871.31
2023-04-16T04:16:07.208Z,101929.09
2023-04-16T04:18:33.821Z,101930.97
2023-04-16T04:21:04.565Z,101953.41
2023-04-16T04:23:31.150Z,101953.56
2023-04-16T04:25:57.875Z,101925.44
2023-04-16T04:28:24.839Z,101922.56
2023-04-16T04:30:51.496Z,101947.78
2023-04-16T04:33:18.678Z,101933.38
2023-04-16T04:35:45.416Z,101966.50
2023-04-16T04:38:13.574Z,101950.94
2023-04-16T04:40:41.626Z,101953.72
2023-04-16T04:43:09.765Z,101965.59
2023-04-16T04:45:36.383Z,101976.44
2023-04-16T04:48:05.230Z,101957.25
2023-04-16T04:50:32.179Z,101973.50
2023-04-16T04:52:59.889Z,101961.78
2023-04-16T04:55:26.889Z,101971.81
2023-04-16T04:57:54.528Z,101963.34
2023-04-16T05:00:21.212Z,101949.81
2023-04-16T05:02:53.370Z,101973.28
2023-04-16T05:05:20.447Z,101993.25
2023-04-16T05:07:47.172Z,101988.78
2023-04-16T05:10:14.099Z,101981.47
2023-04-16T05:12:40.674Z,101973.22
2023-04-16T05:15:07.939Z,102001.03
2023-04-16T05:17:34.590Z,101976.44
2023-04-16T05:20:01.348Z,101993.66
2023-04-16T05:22:27.921Z,101999.19
2023-04-16T05:24:54.441Z,101978.38
2023-04-16T05:27:21.000Z,101986.22
2023-04-16T05:29:47.581Z,101988.84
2023-04-16T05:32:14.330Z,101985.25
2023-04-16T05:34:40.910Z,101974.41
2023-04-16T05:37:07.478Z,102000.69
2023-04-16T05:39:34.106Z,101991.69
2023-04-16T05:42:00.974Z,101975.53
2023-04-16T05:44:27.555Z,102015.88
2023-04-16T05:46:54.146Z,101996.25
2023-04-16T05:49:22.060Z,102012.59
2023-04-16T05:51:50.741Z,101999.22
2023-04-16T05:54:17.608Z,102013.63
2023-04-16T05:56:44.236Z,102009.50
2023-04-16T05:59:11.145Z,101991.66
2023-04-16T06:01:37.828Z,102008.63
2023-04-16T06:04:04.661Z,101998.59
2023-04-16T06:06:31.765Z,101929.00
2023-04-16T06:08:58.351Z,101945.47
2023-04-16T06:11:25.055Z,102021.38
2023-04-16T06:13:51.790Z,102027.69
2023-04-16T06:16:18.403Z,101994.72
2023-04-16T06:18:45.123Z,102000.75
2023-04-16T06:21:11.950Z,102017.06
2023-04-16T06:23:38.630Z,102024.63
2023-04-16T06:26:05.659Z,102041.72
2023-04-16T06:28:32.275Z,102016.66
2023-04-16T06:31:00.526Z,102000.66
2023-04-16T06:33:27.249Z,102008.97
2023-04-16T06:35:53.811Z,102036.13
2023-04-16T06:38:20.496Z,102064.72
2023-04-16T06:40:48.732Z,102025.09
2023-04-16T06:43:15.890Z,102044.91
2023-04-16T06:45:42.495Z,102064.81
2023-04-16T06:48:09.224Z,102057.81
2023-04-16T06:50:35.877Z,102041.34
2023-04-16T06:53:02.493Z,102018.03
2023-04-16T06:55:29.040Z,102073.94
2023-04-16T06:57:55.644Z,102072.44
2023-04-16T07:00:22.240Z,102042.72
2023-04-16T07:02:49.148Z,102081.47
2023-04-16T07:05:16.049Z,102060.88
2023-04-16T07:07:42.649Z,102064.84
2023-04-16T07:10:09.854Z,102068.63
2023-04-16T07:12:36.782Z,102060.97
2023-04-16T07:15:03.517Z,102019.81
2023-04-16T07:17:30.215Z,102100.44
2023-04-16T07:19:56.824Z,102074.69
2023-04-16T07:22:23.439Z,102054.13
2023-04-16T07:24:50.069Z,102106.25
2023-04-16T07:27:17.102Z,102082.09
2023-04-16T07:29:45.623Z,102099.41
2023-04-16T07:32:15.146Z,102072.63
2023-04-16T07:34:42.115Z,102088.59
2023-04-16T07:37:09.089Z,102071.47
2023-04-16T07:39:35.698Z,102089.34
2023-04-16T07:42:02.452Z,102089.63
2023-04-16T07:44:29.733Z,102092.00
2023-04-16T07:46:56.408Z,102063.88
2023-04-16T07:49:22.979Z,102086.25
2023-04-16T07:51:49.699Z,102089.88
2023-04-16T07:54:16.376Z,102092.88
2023-04-16T07:56:42.974Z,102092.38
2023-04-16T07:59:22.176Z,102117.38
2023-04-16T08:01:50.310Z,102069.97
2023-04-16T08:04:22.942Z,102095.69
2023-04-16T08:06:50.972Z,102124.53
2023-04-16T08:09:23.083Z,101915.03
2023-04-16T08:11:50.849Z,102124.13
2023-04-16T08:14:17.708Z,102125.16
2023-04-16T08:16:44.684Z,102115.91
2023-04-16T08:19:11.600Z,102114.13
2023-04-16T08:21:38.534Z,102119.94
2023-04-16T08:24:05.406Z,102137.00
2023-04-16T08:26:32.060Z,102159.47
2023-04-16T08:28:58.611Z,102133.94
2023-04-16T08:31:25.507Z,102132.84
2023-04-16T08:33:52.352Z,102108.53
2023-04-16T08:36:19.024Z,102120.25
2023-04-16T08:38:45.759Z,102133.00
2023-04-16T08:41:13.404Z,102138.28
2023-04-16T08:43:44.687Z,102081.81
2023-04-16T08:46:12.434Z,102079.22
2023-04-16T08:48:41.941Z,102108.75
2023-04-16T08:51:11.255Z,102105.69
2023-04-16T08:53:53.437Z,102157.25
2023-04-16T08:56:23.252Z,102132.06
2023-04-16T08:58:51.232Z,102098.97
2023-04-16T09:01:18.925Z,102107.03
2023-04-16T09:03:48.338Z,102177.31
2023-04-16T09:06:16.405Z,102185.09
2023-04-16T09:08:49.036Z,102157.91
2023-04-16T09:11:18.017Z,102192.97
2023-04-16T09:13:46.087Z,102185.91
2023-04-16T09:16:13.850Z,102189.44
2023-04-16T09:18:41.259Z,102181.34
2023-04-16T09:21:10.965Z,102189.44
2023-04-16T09:23:38.865Z,102171.34
2023-04-16T09:26:06.063Z,102188.19
2023-04-16T09:28:43.575Z,102158.81
2023-04-16T09:31:12.752Z,102186.78
2023-04-16T09:33:39.686Z,102194.69
2023-04-16T09:36:07.570Z,102168.69
2023-04-16T09:38:48.793Z,102177.41
2023-04-16T09:41:18.972Z,102188.63
2023-04-16T09:43:59.291Z,102140.06
2023-04-16T09:46:35.390Z,102183.47
2023-04-16T09:49:10.090Z,102201.72
2023-04-16T09:51:38.518Z,102184.31
2023-04-16T09:54:05.844Z,102189.75
2023-04-16T09:56:32.627Z,102208.41
2023-04-16T09:59:02.586Z,102194.16
2023-04-16T10:01:30.928Z,102206.81
2023-04-16T10:03:59.802Z,102212.91
2023-04-16T10:06:29.190Z,102169.59
2023-04-16T10:08:58.675Z,102187.78
2023-04-16T10:11:25.937Z,102199.84
2023-04-16T10:13:52.568Z,102209.91
2023-04-16T10:16:19.381Z,102168.09
2023-04-16T10:18:47.295Z,102179.59
2023-04-16T10:21:16.286Z,102182.31
2023-04-16T10:23:43.933Z,102192.19
2023-04-16T10:26:10.834Z,102147.16
2023-04-16T10:28:37.474Z,102203.53
2023-04-16T10:31:06.903Z,102208.72
2023-04-16T10:33:36.396Z,102210.34
2023-04-16T10:36:24.089Z,102214.78
2023-04-16T10:38:52.512Z,102177.78
2023-04-16T10:41:22.600Z,102178.44
2023-04-16T10:43:50.871Z,102203.69
2023-04-16T10:46:26.603Z,102194.88
2023-04-16T10:48:56.089Z,102188.56
2023-04-16T10:51:32.204Z,102190.38
2023-04-16T10:54:19.378Z,102195.66
2023-04-16T10:56:46.945Z,102193.81
2023-04-16T10:59:18.621Z,102197.47
2023-04-16T11:01:54.410Z,102176.91
2023-04-16T11:04:21.189Z,102171.50
2023-04-16T11:07:04.344Z,102201.00
2023-04-16T11:09:59.840Z,102189.13
2023-04-16T11:12:37.731Z,102200.63
2023-04-16T11:15:09.903Z,102169.81
2023-04-16T11:17:45.618Z,102164.34
2023-04-16T11:20:20.063Z,102175.47
2023-04-16T11:22:52.869Z,102129.06
2023-04-16T11:25:22.069Z,102163.41
2023-04-16T11:27:49.691Z,102169.72
2023-04-16T11:30:17.160Z,102188.47
2023-04-16T11:32:44.510Z,102166.09
2023-04-16T11:35:16.299Z,102152.09
2023-04-16T11:37:43.247Z,102165.25
2023-04-16T11:40:10.365Z,102160.22
2023-04-16T11:42:38.287Z,102149.91
2023-04-16T11:45:05.379Z,102154.94
2023-04-16T11:47:42.086Z,102175.56
2023-04-16T11:50:25.926Z,102158.75
2023-04-16T11:52:53.990Z,102178.09
2023-04-16T11:55:21.267Z,102157.84
2023-04-16T11:57:47.978Z,102136.50
2023-04-16T12:00:15.295Z,102189.50
2023-04-16T12:02:52.884Z,102189.47
2023-04-16T12:05:28.667Z,102183.19
2023-04-16T12:07:55.948Z,102200.16
2023-04-16T12:10:22.782Z,102188.38
2023-04-16T12:12:49.560Z,102181.13
2023-04-16T12:15:16.488Z,102184.00
2023-04-16T12:17:44.323Z,102187.66
2023-04-16T12:20:14.001Z,102210.09
2023-04-16T12:22:44.501Z,102192.16
2023-04-16T12:25:14.387Z,102188.59
2023-04-16T12:27:53.772Z,102194.84
2023-04-16T12:30:23.385Z,102141.88
2023-04-16T12:32:52.658Z,102211.88
2023-04-16T12:35:33.749Z,102203.72
2023-04-16T12:38:01.052Z,102199.22
2023-04-16T12:40:27.830Z,102210.84
2023-04-16T12:42:54.890Z,102181.94
2023-04-16T12:45:22.789Z,102144.78
2023-04-16T12:47:50.485Z,102124.72
2023-04-16T12:50:17.749Z,102203.69
2023-04-16T12:52:44.599Z,102222.00
2023-04-16T12:55:11.923Z,102155.16
2023-04-16T12:57:38.592Z,102155.84
2023-04-16T13:00:06.614Z,102209.75
2023-04-16T13:02:33.372Z,102195.38
2023-04-16T13:05:00.218Z,102224.50
2023-04-16T13:07:28.146Z,102239.78
2023-04-16T13:09:54.929Z,102197.56
2023-04-16T13:12:21.565Z,102224.72
2023-04-16T13:14:48.196Z,102196.78
2023-04-16T13:17:15.202Z,102181.13
2023-04-16T13:19:41.747Z,102198.47
2023-04-16T13:22:09.534Z,102177.72
2023-04-16T13:24:36.178Z,102218.31
2023-04-16T13:27:03.041Z,102201.19
2023-04-16T13:29:30.433Z,102188.84
2023-04-16T13:31:57.817Z,102185.31
2023-04-16T13:34:24.490Z,102173.38
2023-04-16T13:36:51.063Z,102191.06
2023-04-16T13:39:17.668Z,102198.81
2023-04-16T13:41:44.264Z,102210.97
2023-04-16T13:44:10.915Z,102171.03
2023-04-16T13:46:37.526Z,102128.34
2023-04-16T13:49:04.301Z,102189.69
2023-04-16T13:51:32.071Z,102194.88
2023-04-16T13:53:59.642Z,102192.94
2023-04-16T13:56:26.580Z,102198.25
2023-04-16T13:58:54.224Z,102186.75
2023-04-16T14:01:21.131Z,102197.28
2023-04-16T14:03:49.380Z,102191.22
2023-04-16T14:06:18.028Z,102158.94
2023-04-16T14:08:45.513Z,102198.47
2023-04-16T14:11:12.231Z,102165.19
2023-04-16T14:13:38.954Z,102176.00
2023-04-16T14:16:06.011Z,102202.03
2023-04-16T14:18:32.698Z,102202.91
2023-04-16T14:21:01.978Z,102167.00
2023-04-16T14:23:28.637Z,102191.00
2023-04-16T14:25:56.112Z,102171.25
2023-04-16T14:28:22.655Z,102182.72
2023-04-16T14:30:49.508Z,102165.38
2023-04-16T14:33:16.345Z,102189.47
2023-04-16T14:35:42.984Z,102171.19
2023-04-16T14:38:09.694Z,102210.59
2023-04-16T14:40:36.361Z,102206.69
2023-04-16T14:43:03.076Z,102168.75
2023-04-16T14:45:30.848Z,102229.47
2023-04-16T14:47:57.544Z,102209.47
2023-04-16T14:50:24.152Z,102181.34
2023-04-16T14:52:51.143Z,102210.25
2023-04-16T14:55:17.884Z,102225.53
2023-04-16T14:57:44.605Z,102219.19
2023-04-16T15:00:13.096Z,102210.25
2023-04-16T15:02:40.120Z,102187.84
2023-04-16T15:05:09.770Z,102226.16
2023-04-16T15:07:37.068Z,102147.75
2023-04-16T15:10:04.303Z,102130.25
2023-04-16T15:12:31.014Z,102213.00
2023-04-16T15:14:57.597Z,102204.84
2023-04-16T15:17:24.255Z,102218.06
2023-04-16T15:19:52.189Z,102211.56
2023-04-16T15:22:18.938Z,102207.06
2023-04-16T15:24:45.760Z,102194.06
2023-04-16T15:27:13.852Z,102196.59
2023-04-16T15:29:40.456Z,102220.41
2023-04-16T15:32:07.122Z,102208.06
2023-04-16T15:34:33.839Z,102227.63
2023-04-16T15:37:00.616Z,102223.97
2023-04-16T15:39:27.277Z,102207.44
2023-04-16T15:42:01.591Z,102216.75
2023-04-16T15:44:31.038Z,102227.59
2023-04-16T15:46:57.727Z,102233.88
2023-04-16T15:49:24.801Z,102195.84
2023-04-16T15:51:52.283Z,102208.50
2023-04-16T15:54:19.225Z,102137.16
2023-04-16T15:56:46.681Z,102209.88
2023-04-16T15:59:13.601Z,102204.09
2023-04-16T16:01:40.856Z,102211.09
2023-04-16T16:04:08.169Z,102155.63
2023-04-16T16:06:35.659Z,102196.00
2023-04-16T16:09:02.269Z,102201.34
2023-04-16T16:11:28.960Z,102167.66
2023-04-16T16:13:55.481Z,102231.28
2023-04-16T16:16:22.143Z,102216.81
2023-04-16T16:18:48.918Z,102209.13
2023-04-16T16:21:15.542Z,102225.16
2023-04-16T16:23:42.156Z,102207.69
2023-04-16T16:26:09.215Z,102230.78
2023-04-16T16:28:38.810Z,102235.22
2023-04-16T16:31:06.848Z,102189.09
2023-04-16T16:33:33.588Z,102227.41
2023-04-16T16:36:00.508Z,102225.94
2023-04-16T16:38:27.475Z,102211.13
2023-04-16T16:40:54.004Z,102213.16
2023-04-16T16:43:20.651Z,102231.69
2023-04-16T16:45:47.320Z,102242.94
2023-04-16T16:48:13.907Z,102225.84
2023-04-16T16:50:40.558Z,102230.56
2023-04-16T16:53:07.433Z,102234.16
2023-04-16T16:55:35.484Z,102235.84
2023-04-16T16:58:02.169Z,102244.03
2023-04-16T17:00:28.879Z,102174.69
2023-04-16T17:02:55.820Z,102227.78
2023-04-16T17:05:22.658Z,102228.31
2023-04-16T17:07:49.255Z,102249.66
2023-04-16T17:10:20.773Z,102200.19
2023-04-16T17:12:48.344Z,102235.13
2023-04-16T17:15:15.603Z,102251.13
2023-04-16T17:17:42.558Z,102165.28
2023-04-16T17:20:10.816Z,102181.19
2023-04-16T17:22:38.773Z,102212.59
2023-04-16T17:25:07.552Z,102238.63
2023-04-16T17:27:34.388Z,102247.38
2023-04-16T17:30:01.863Z,102223.69
2023-04-16T17:32:29.813Z,102148.75
2023-04-16T17:34:56.848Z,102229.72
2023-04-16T17:37:23.579Z,102240.41
2023-04-16T17:39:50.369Z,102222.41
2023-04-16T17:42:18.018Z,102250.03
2023-04-16T17:44:44.751Z,102250.63
2023-04-16T17:47:11.735Z,102228.06
2023-04-16T17:49:38.309Z,102257.69
2023-04-16T17:52:05.007Z,102258.53
2023-04-16T17:54:31.596Z,102160.81
2023-04-16T17:56:58.819Z,102225.47
2023-04-16T17:59:25.528Z,102239.72
2023-04-16T18:01:52.369Z,102267.47
2023-04-16T18:04:19.474Z,102223.75
2023-04-16T18:06:46.359Z,102272.16
2023-04-16T18:09:14.254Z,102246.31
2023-04-16T18:11:41.902Z,102265.50
2023-04-16T18:14:09.871Z,102262.69
2023-04-16T18:16:36.885Z,102240.16
2023-04-16T18:19:03.542Z,102230.56
2023-04-16T18:21:30.420Z,102267.97
2023-04-16T18:23:57.521Z,102273.91
2023-04-16T18:26:25.254Z,102249.22
2023-04-16T18:28:52.580Z,102279.22
2023-04-16T18:31:21.294Z,102260.66
2023-04-16T18:33:56.217Z,102255.38
2023-04-16T18:36:23.927Z,102254.19
2023-04-16T18:39:00.895Z,102251.00
2023-04-16T18:41:30.009Z,102260.56
2023-04-16T18:43:57.257Z,102294.47
2023-04-16T18:46:24.090Z,102295.94
2023-04-16T18:48:50.901Z,102264.84
2023-04-16T18:51:17.564Z,102291.66
2023-04-16T18:53:45.570Z,102258.00
2023-04-16T18:56:12.791Z,102283.94
2023-04-16T18:58:39.536Z,102277.38
2023-04-16T19:01:11.054Z,102311.41
2023-04-16T19:03:38.255Z,102263.44
2023-04-16T19:06:05.917Z,102303.34
2023-04-16T19:08:32.656Z,102293.63
2023-04-16T19:10:59.440Z,102281.50
2023-04-16T19:13:26.205Z,102304.59
2023-04-16T19:15:59.339Z,102216.75
2023-04-16T19:18:26.573Z,102312.50
2023-04-16T19:21:02.371Z,102297.84
2023-04-16T19:23:29.299Z,102229.94
2023-04-16T19:25:56.964Z,102286.31
2023-04-16T19:28:24.787Z,102323.50
2023-04-16T19:30:52.252Z,102314.31
2023-04-16T19:33:19.375Z,102230.31
2023-04-16T19:35:47.088Z,102247.28
2023-04-16T19:38:13.677Z,102318.22
2023-04-16T19:40:41.003Z,102308.25
2023-04-16T19:43:07.797Z,102312.63
2023-04-16T19:45:34.442Z,102328.91
2023-04-16T19:48:01.095Z,102312.56
2023-04-16T19:50:27.753Z,102282.94
2023-04-16T19:52:54.277Z,102340.44
2023-04-16T19:55:20.910Z,102282.69
2023-04-16T19:57:48.128Z,102282.59
2023-04-16T20:00:15.151Z,102299.19
2023-04-16T20:02:41.921Z,102340.31
2023-04-16T20:05:09.258Z,102326.81
2023-04-16T20:07:35.937Z,102309.47
2023-04-16T20:10:03.061Z,102323.69
2023-04-16T20:12:29.721Z,102337.06
2023-04-16T20:14:56.287Z,102338.03
2023-04-16T20:17:22.919Z,102319.91
2023-04-16T20:19:50.996Z,102304.59
2023-04-16T20:22:18.700Z,102309.16
2023-04-16T20:24:47.866Z,102334.41
2023-04-16T20:27:15.235Z,102319.38
2023-04-16T20:29:42.173Z,102356.25
2023-04-16T20:32:08.941Z,102325.72
2023-04-16T20:34:36.632Z,102342.81
2023-04-16T20:37:04.126Z,102300.31
2023-04-16T20:39:34.177Z,102259.56
2023-04-16T20:42:04.086Z,102302.97
2023-04-16T20:44:40.363Z,102321.88
2023-04-16T20:47:11.665Z,102341.59
2023-04-16T20:49:40.187Z,102243.16
2023-04-16T20:52:07.466Z,102361.34
2023-04-16T20:54:34.146Z,102349.38
2023-04-16T20:57:01.661Z,102352.09
2023-04-16T20:59:29.450Z,102360.38
2023-04-16T21:01:56.595Z,102262.69
2023-04-16T21:04:24.479Z,102368.19
2023-04-16T21:06:53.603Z,102337.59
2023-04-16T21:09:20.940Z,102364.59
2023-04-16T21:11:48.117Z,102362.91
2023-04-16T21:14:14.784Z,102279.56
2023-04-16T21:16:41.457Z,102342.53
2023-04-16T21:19:08.735Z,102357.97
2023-04-16T21:21:35.614Z,102345.19
2023-04-16T21:24:02.208Z,102357.00
2023-04-16T21:26:28.786Z,102355.31
2023-04-16T21:29:03.475Z,102342.66
2023-04-16T21:31:34.935Z,102330.09
2023-04-16T21:34:01.703Z,102316.66
2023-04-16T21:36:31.967Z,102357.28
2023-04-16T21:38:58.657Z,102355.66
2023-04-16T21:41:25.349Z,102331.31
2023-04-16T21:43:51.990Z,102343.84
2023-04-16T21:46:18.587Z,102342.03
2023-04-16T21:48:45.778Z,102339.50
2023-04-16T21:51:12.375Z,102331.38
2023-04-16T21:53:39.103Z,102329.50
2023-04-16T21:56:06.504Z,102358.44
2023-04-16T21:58:33.193Z,102348.66
2023-04-16T22:00:59.848Z,102329.00
2023-04-16T22:03:27.890Z,102310.91
2023-04-16T22:06:01.593Z,102350.47
2023-04-16T22:08:30.058Z,102344.44
2023-04-16T22:11:03.167Z,102233.97
2023-04-16T22:13:32.350Z,102331.75
2023-04-16T22:16:03.215Z,102307.41
2023-04-16T22:18:33.537Z,102275.84
2023-04-16T22:21:00.748Z,102349.75
2023-04-16T22:23:27.484Z,102321.03
2023-04-16T22:25:55.883Z,102300.97
2023-04-16T22:28:22.752Z,102313.63
2023-04-16T22:30:49.712Z,102306.41
2023-04-16T22:33:16.370Z,102310.91
2023-04-16T22:35:43.243Z,102336.94
2023-04-16T22:38:10.338Z,102326.97
2023-04-16T22:40:37.024Z,102341.72
2023-04-16T22:43:04.620Z,102346.25
2023-04-16T22:45:31.273Z,102336.41
2023-04-16T22:47:57.980Z,102243.34
2023-04-16T22:50:24.674Z,102351.97
2023-04-16T22:52:51.327Z,102288.78
2023-04-16T22:55:18.149Z,102320.53
2023-04-16T22:57:44.835Z,102351.31
2023-04-16T23:00:15.853Z,102218.13
2023-04-16T23:02:42.932Z,102313.19
2023-04-16T23:05:11.068Z,102334.22
2023-04-16T23:07:37.725Z,102318.97
2023-04-16T23:10:04.736Z,102340.69
2023-04-16T23:12:31.370Z,102291.78
2023-04-16T23:14:58.264Z,102325.41
2023-04-16T23:17:25.060Z,102319.59
2023-04-16T23:19:51.808Z,102319.72
2023-04-16T23:22:18.438Z,102332.28
2023-04-16T23:24:45.684Z,102312.50
2023-04-16T23:27:12.364Z,102308.75
2023-04-16T23:29:40.023Z,102301.63
2023-04-16T23:32:06.788Z,102339.59
2023-04-16T23:34:33.393Z,102335.13
2023-04-16T23:37:00.190Z,102330.78
2023-04-16T23:39:27.183Z,102309.94
2023-04-16T23:41:53.799Z,102245.03
2023-04-16T23:44:20.503Z,102329.00
2023-04-16T23:46:47.238Z,102332.72
2023-04-16T23:49:13.925Z,102344.63
2023-04-16T23:51:40.534Z,102326.31
2023-04-16T23:54:07.169Z,102345.28
2023-04-16T23:56:33.839Z,102323.34
2023-04-16T23:59:00.442Z,102303.50
